• Join FlightAware (Why Join?)
  • Login
  • US Flag 
10:32PM EDT


 

Airport Tracker/Info


-or-


 

Live Flight TrackerFlight Track Log ✈ N983CA ✈ 17-Apr-2013 ✈ KSFO - CYYJ

Flight Track Log - Related Links

Times and Time Zones

All times are in EDT time to prevent confusion due to time zone crossing. See the N983CA flight status page for this flight to view local times or setup timezone preferences in your user account.

Time Position Orientation Groundspeed Altitude Reporting Facility
EDT Latitude Longitude Course Direction KTS MPH feet Rate Location/Type
02:05PM 37.6328 -122.3622 North 150 173 1,300  Level Oakland Center
02:06PM 37.6864 -122.3294 26° Northeast 184 212 4,700 3,240 Climbing Oakland Center
02:07PM 37.7367 -122.3089 18° North 196 226 8,000 3,000 Climbing Oakland Center
02:08PM 37.6320 -122.4170 120° Southeast  Level FlightAware Approximate
02:08PM 37.7947 -122.3042 North 210 242 10,900  Level Oakland Center
02:09PM 37.6710 -122.3606 North  Level FlightAware Approximate
02:09PM 37.8589 -122.3031 North 226 260 12,800  Level Oakland Center
02:10PM 37.7692 -122.3500 North  Level FlightAware Approximate
02:10PM 37.9297 -122.3125 354° North 256 295 15,000  Level Oakland Center
02:11PM 38.0017 -122.3233 353° North 262 302 17,000 1,920 Climbing Oakland Center
02:12PM 38.0928 -122.3344 355° North 274 315 19,000 1,740 Climbing Oakland Center
02:13PM 38.1697 -122.3458 353° North 279 321 20,600 1,560 Climbing Oakland Center
02:14PM 38.2503 -122.3569 354° North 288 331 22,200 1,440 Climbing Oakland Center
02:15PM 38.3328 -122.3681 354° North 299 344 23,600 1,440 Climbing Oakland Center
02:16PM 38.4172 -122.3786 354° North 306 352 25,200 1,320 Climbing Oakland Center
02:17PM 38.5011 -122.3900 354° North 306 352 26,400 1,260 Climbing Oakland Center
02:18PM 38.5864 -122.4036 353° North 311 358 27,800 1,260 Climbing Oakland Center
02:19PM 38.6714 -122.4156 354° North 309 356 29,000 960 Climbing Oakland Center
02:20PM 38.7742 -122.4297 354° North 309 356 29,800 720 Climbing Oakland Center
02:21PM 38.8600 -122.4414 354° North 310 357 30,500 600 Climbing Oakland Center
02:22PM 38.9483 -122.4528 354° North 315 362 31,100 480 Climbing Oakland Center
02:23PM 39.0375 -122.4283 12° North 327 376 31,600 420 Climbing Oakland Center
02:24PM 39.1283 -122.4042 12° North 331 381 32,000 180 Climbing Oakland Center
02:25PM 39.2217 -122.3825 10° North 340 391 32,000  Level Oakland Center
02:26PM 39.3181 -122.3900 357° North 347 399 32,000  Level Oakland Center
02:27PM 39.4158 -122.3986 356° North 351 404 32,000  Level Oakland Center
02:28PM 39.5333 -122.4119 355° North 361 415 32,000  Level Oakland Center
02:29PM 39.6347 -122.4217 356° North 366 421 32,000  Level Oakland Center
02:30PM 39.7361 -122.4322 355° North 369 425 32,000  Level Oakland Center
02:31PM 39.8386 -122.4417 356° North 371 427 32,000  Level Oakland Center
02:32PM 39.9411 -122.4522 355° North 369 425 32,000  Level Oakland Center
02:33PM 40.0436 -122.4633 355° North 367 422 32,000  Level Oakland Center
02:34PM 40.1481 -122.4747 355° North 369 425 32,000  Level Oakland Center
02:35PM 40.2511 -122.4842 356° North 365 420 32,000  Level Oakland Center
02:36PM 40.3511 -122.4939 356° North 357 411 32,000  Level Oakland Center
02:37PM 40.4511 -122.5039 356° North 359 413 32,000  Level Oakland Center
02:38PM 40.5506 -122.5133 356° North 357 411 32,000  Level Oakland Center
02:39PM 40.6506 -122.5239 355° North 358 412 32,000  Level Oakland Center
02:40PM 40.7697 -122.5364 355° North 358 412 32,000  Level Oakland Center
02:41PM 40.8692 -122.5464 356° North 358 412 32,000  Level Oakland Center
02:43PM 40.9689 -122.5553 356° North 358 412 32,000  Level Oakland Center
02:44PM 41.0694 -122.5683 354° North 363 418 32,000  Level Oakland Center
02:45PM 41.1697 -122.5778 356° North 363 418 32,000  Level Oakland Center
02:46PM 41.2703 -122.5886 355° North 365 420 32,000  Level Oakland Center
02:47PM 41.3675 -122.5986 356° North 361 415 32,000  Level Oakland Center
02:47PM 41.4106 -122.6033 355° North 364 419 32,000  Level Seattle Center
02:48PM 41.5094 -122.6139 355° North 366 421 32,000  Level Seattle Center
02:49PM 41.6108 -122.6258 355° North 365 420 32,000  Level Seattle Center
02:50PM 41.7111 -122.6356 356° North 362 417 32,000  Level Seattle Center
02:51PM 41.8128 -122.6472 355° North 363 418 32,000  Level Seattle Center
02:52PM 41.9150 -122.6567 356° North 366 421 32,000  Level Seattle Center
02:53PM 42.0178 -122.6681 355° North 368 423 32,000  Level Seattle Center
02:54PM 42.1197 -122.6789 355° North 367 422 32,000  Level Seattle Center
02:55PM 42.2222 -122.6906 355° North 368 423 32,000  Level Seattle Center
02:56PM 42.3447 -122.7036 355° North 365 420 32,000  Level Seattle Center
02:57PM 42.4475 -122.7139 356° North 368 423 32,000  Level Seattle Center
02:58PM 42.5508 -122.7253 355° North 369 425 32,000  Level Seattle Center
02:59PM 42.6536 -122.7369 355° North 370 426 32,000  Level Seattle Center
03:00PM 42.7533 -122.7472 356° North 370 426 32,000  Level Seattle Center
03:01PM 42.8556 -122.7597 355° North 369 425 32,000  Level Seattle Center
03:02PM 42.9575 -122.7706 356° North 368 423 32,000  Level Seattle Center
03:03PM 43.0589 -122.7828 355° North 367 422 32,000  Level Seattle Center
03:04PM 43.1617 -122.7928 356° North 370 426 32,000  Level Seattle Center
03:05PM 43.2628 -122.8056 355° North 367 422 32,000  Level Seattle Center
03:06PM 43.3856 -122.8194 355° North 368 423 32,000  Level Seattle Center
03:07PM 43.4875 -122.8308 355° North 368 423 32,000  Level Seattle Center
03:08PM 43.5897 -122.8422 355° North 370 426 32,000  Level Seattle Center
03:09PM 43.6917 -122.8539 355° North 369 425 32,000  Level Seattle Center
03:10PM 43.7942 -122.8650 356° North 371 427 32,000  Level Seattle Center
03:11PM 43.8969 -122.8767 355° North 373 429 32,000  Level Seattle Center
03:12PM 43.9989 -122.8892 355° North 370 426 32,000  Level Seattle Center
03:13PM 44.1011 -122.9011 355° North 371 427 32,000  Level Seattle Center
03:14PM 44.2028 -122.9125 355° North 370 426 32,000  Level Seattle Center
03:15PM 44.3050 -122.9242 355° North 373 429 32,000  Level Seattle Center
03:16PM 44.4236 -122.9381 355° North 371 427 32,000  Level Seattle Center
03:17PM 44.5272 -122.9503 355° North 375 432 32,000  Level Seattle Center
03:18PM 44.6300 -122.9625 355° North 375 432 32,000  Level Seattle Center
03:20PM 44.7328 -122.9753 355° North 373 429 32,000  Level Seattle Center
03:21PM 44.8350 -122.9869 355° North 373 429 32,000  Level Seattle Center
03:22PM 44.9378 -123.0000 355° North 374 430 32,000  Level Seattle Center
03:23PM 45.0406 -123.0128 355° North 375 432 32,000  Level Seattle Center
03:24PM 45.1436 -123.0256 355° North 376 433 32,000  Level Seattle Center
03:25PM 45.2675 -123.0394 355° North 375 432 32,000  Level Seattle Center
03:26PM 45.3711 -123.0511 355° North 376 433 32,000  Level Seattle Center
03:27PM 45.4753 -123.0647 355° North 377 434 32,000  Level Seattle Center
03:28PM 45.5786 -123.0775 355° North 376 433 32,000  Level Seattle Center
03:29PM 45.6828 -123.0906 355° North 377 434 32,000  Level Seattle Center
03:30PM 45.7861 -123.1033 355° North 375 432 32,000  Level Seattle Center
03:31PM 45.8906 -123.1150 356° North 378 435 32,000  Level Seattle Center
03:32PM 45.9956 -123.1300 354° North 379 436 32,000  Level Seattle Center
03:33PM 46.1000 -123.1425 355° North 378 435 32,000  Level Seattle Center
03:34PM 46.2042 -123.1550 355° North 376 433 32,000  Level Seattle Center
03:35PM 46.3289 -123.1719 355° North 377 434 32,000  Level Seattle Center
03:36PM 46.4336 -123.1833 356° North 378 435 32,000  Level Seattle Center
03:37PM 46.5308 -123.1967 355° North 376 433 32,000  Level Seattle Center
03:38PM 46.6344 -123.2097 355° North 377 434 32,000  Level Seattle Center
03:39PM 46.7381 -123.2231 355° North 377 434 32,000  Level Seattle Center
03:40PM 46.8417 -123.2369 355° North 377 434 32,000  Level Seattle Center
03:41PM 46.9447 -123.2494 355° North 376 433 32,000  Level Seattle Center
03:42PM 47.0689 -123.2653 355° North 377 434 32,000  Level Seattle Center
03:43PM 47.1717 -123.2767 356° North 376 433 32,000  Level Seattle Center
03:44PM 47.2744 -123.2908 355° North 374 430 32,000  Level Seattle Center
03:45PM 47.3781 -123.3039 355° North 374 430 32,000  Level Seattle Center
03:46PM 47.4817 -123.3181 355° North 376 433 32,000 -720 Level Seattle Center
03:47PM 47.5853 -123.3319 355° North 375 432 30,600 -1,740 Descending Seattle Center
03:48PM 47.6936 -123.3472 355° North 386 444 28,500 -2,100 Descending Seattle Center
03:49PM 47.8064 -123.3597 356° North 401 461 26,400 -2,220 Descending Seattle Center
03:50PM 47.9147 -123.3764 354° North 397 457 24,100 -2,520 Descending Seattle Center
03:51PM 48.0419 -123.3922 355° North 386 444 21,300 -2,520 Descending Seattle Center
03:52PM 48.1361 -123.4056 355° North 377 434 19,000 -2,460 Descending Seattle Center
03:53PM 48.2306 -123.4325 349° North 351 404 16,300 -2,820 Descending Seattle Center
03:54PM 48.3186 -123.4686 345° North 331 381 13,300 -2,220 Descending Seattle Center
03:56PM 48.4333 -123.5500 335° Northwest 210 242 9,800 -2,040 Descending Vancouver Center
03:57PM 48.4833 -123.5500 360° North 210 242 7,400 -2,400 Descending Vancouver Center
03:58PM 48.5500 -123.5500 360° North 200 230 5,100 -2,040 Descending Vancouver Center
03:59PM 48.6000 -123.5500 360° North 200 230 3,400 -1,740 Descending Vancouver Center